createdAt,value
2019-03-30T00:00:51.972Z,14.40
2019-03-30T00:03:18.541Z,13.80
2019-03-30T00:05:45.237Z,17.07
2019-03-30T00:08:11.811Z,16.63
2019-03-30T00:10:38.570Z,17.00
2019-03-30T00:13:05.175Z,16.77
2019-03-30T00:15:31.851Z,16.40
2019-03-30T00:17:58.646Z,16.80
2019-03-30T00:20:25.196Z,14.03
2019-03-30T00:22:52.885Z,15.83
2019-03-30T00:25:19.565Z,16.30
2019-03-30T00:27:46.246Z,18.33
2019-03-30T00:30:13.274Z,24.63
2019-03-30T00:32:39.953Z,27.73
2019-03-30T00:35:06.955Z,28.37
2019-03-30T00:37:35.035Z,27.20
2019-03-30T00:40:02.632Z,26.07
2019-03-30T00:42:29.236Z,22.83
2019-03-30T00:44:55.833Z,18.10
2019-03-30T00:47:22.399Z,16.20
2019-03-30T00:49:50.195Z,16.70
2019-03-30T00:52:17.203Z,13.80
2019-03-30T00:54:43.878Z,12.87
2019-03-30T00:57:10.528Z,13.07
2019-03-30T00:59:37.360Z,15.17
2019-03-30T01:02:04.151Z,15.10
2019-03-30T01:04:30.994Z,15.60
2019-03-30T01:06:57.628Z,14.63
2019-03-30T01:09:24.291Z,15.73
2019-03-30T01:11:51.069Z,16.30
2019-03-30T01:14:18.266Z,15.50
2019-03-30T01:16:45.015Z,12.63
2019-03-30T01:19:11.673Z,11.67
2019-03-30T01:21:38.310Z,12.77
2019-03-30T01:24:06.954Z,12.57
2019-03-30T01:26:33.523Z,12.53
2019-03-30T01:29:00.103Z,12.70
2019-03-30T01:31:26.757Z,12.73
2019-03-30T01:33:53.367Z,13.17
2019-03-30T01:36:20.117Z,16.33
2019-03-30T01:38:47.189Z,14.40
2019-03-30T01:41:13.845Z,15.60
2019-03-30T01:43:40.531Z,14.83
2019-03-30T01:46:07.066Z,10.90
2019-03-30T01:48:33.664Z,11.70
2019-03-30T01:51:00.276Z,11.77
2019-03-30T01:53:26.866Z,11.37
2019-03-30T01:55:53.523Z,11.10
2019-03-30T01:58:20.163Z,13.10
2019-03-30T02:00:46.867Z,12.53
2019-03-30T02:03:13.710Z,12.30
2019-03-30T02:05:40.419Z,12.57
2019-03-30T02:08:07.013Z,11.70
2019-03-30T02:10:38.800Z,11.43
2019-03-30T02:13:05.638Z,11.43
2019-03-30T02:15:32.419Z,11.10
2019-03-30T02:17:59.044Z,12.37
2019-03-30T02:20:31.359Z,11.57
2019-03-30T02:22:57.947Z,12.47
2019-03-30T02:25:24.621Z,12.83
2019-03-30T02:28:47.526Z,15.33
2019-03-30T02:31:15.393Z,13.33
2019-03-30T02:33:41.986Z,13.10
2019-03-30T02:36:08.799Z,14.17
2019-03-30T02:38:35.450Z,13.83
2019-03-30T02:41:02.246Z,13.33
2019-03-30T02:43:28.837Z,14.30
2019-03-30T02:45:55.395Z,12.43
2019-03-30T02:48:21.944Z,12.10
2019-03-30T02:50:50.617Z,12.67
2019-03-30T02:53:17.061Z,11.47
2019-03-30T02:55:43.785Z,12.73
2019-03-30T02:58:10.397Z,12.70
2019-03-30T03:00:37.392Z,12.50
2019-03-30T03:03:04.133Z,11.67
2019-03-30T03:05:30.791Z,12.50
2019-03-30T03:07:57.546Z,11.90
2019-03-30T03:10:24.471Z,12.30
2019-03-30T03:12:52.240Z,11.93
2019-03-30T03:15:19.001Z,11.73
2019-03-30T03:17:46.236Z,11.77
2019-03-30T03:20:13.218Z,11.47
2019-03-30T03:22:39.829Z,12.13
2019-03-30T03:25:07.532Z,12.43
2019-03-30T03:27:34.377Z,11.90
2019-03-30T03:30:01.470Z,12.23
2019-03-30T03:32:28.442Z,11.70
2019-03-30T03:34:55.197Z,12.60
2019-03-30T03:37:21.797Z,12.83
2019-03-30T03:39:48.409Z,11.53
2019-03-30T03:42:15.005Z,11.47
2019-03-30T03:44:41.617Z,12.87
2019-03-30T03:47:08.301Z,11.90
2019-03-30T03:49:34.841Z,12.03
2019-03-30T03:52:02.430Z,11.47
2019-03-30T03:54:31.692Z,12.10
2019-03-30T03:56:58.985Z,12.63
2019-03-30T03:59:26.869Z,12.33
2019-03-30T04:01:55.288Z,12.07
2019-03-30T04:04:25.946Z,12.03
2019-03-30T04:06:58.206Z,11.60
2019-03-30T04:09:29.123Z,12.53
2019-03-30T04:11:57.780Z,12.00
2019-03-30T04:14:25.278Z,11.10
2019-03-30T04:16:51.937Z,12.10
2019-03-30T04:19:18.710Z,12.67
2019-03-30T04:21:45.426Z,11.57
2019-03-30T04:24:12.042Z,11.33
2019-03-30T04:26:39.808Z,12.10
2019-03-30T04:29:06.384Z,11.83
2019-03-30T04:31:33.142Z,12.03
2019-03-30T04:34:03.125Z,11.03
2019-03-30T04:36:29.766Z,11.60
2019-03-30T04:38:56.359Z,11.70
2019-03-30T04:41:23.005Z,11.80
2019-03-30T04:43:49.585Z,12.50
2019-03-30T04:46:16.196Z,11.83
2019-03-30T04:48:42.756Z,11.07
2019-03-30T04:51:09.365Z,11.47
2019-03-30T04:53:35.993Z,11.50
2019-03-30T04:56:03.177Z,11.00
2019-03-30T04:58:29.732Z,11.53
2019-03-30T05:00:56.351Z,11.77
2019-03-30T05:03:23.008Z,11.57
2019-03-30T05:05:49.661Z,11.57
2019-03-30T05:08:17.391Z,11.30
2019-03-30T05:10:44.008Z,10.93
2019-03-30T05:13:10.573Z,12.57
2019-03-30T05:15:37.284Z,11.33
2019-03-30T05:18:03.947Z,11.43
2019-03-30T05:20:30.609Z,11.17
2019-03-30T05:22:58.272Z,12.60
2019-03-30T05:25:24.873Z,11.87
2019-03-30T05:27:51.640Z,11.37
2019-03-30T05:30:18.248Z,10.70
2019-03-30T05:32:45.043Z,11.80
2019-03-30T05:35:11.848Z,11.57
2019-03-30T05:37:38.509Z,12.23
2019-03-30T05:40:06.804Z,11.90
2019-03-30T05:42:33.441Z,12.10
2019-03-30T05:45:00.053Z,12.20
2019-03-30T05:47:27.813Z,12.73
2019-03-30T05:49:54.391Z,12.13
2019-03-30T05:52:26.820Z,11.13
2019-03-30T05:54:49.510Z,12.67
2019-03-30T05:57:16.121Z,11.07
2019-03-30T05:59:42.669Z,11.23
2019-03-30T06:02:09.227Z,11.40
2019-03-30T06:04:35.945Z,11.23
2019-03-30T06:07:02.865Z,10.20
2019-03-30T06:09:29.454Z,10.50
2019-03-30T06:11:56.071Z,10.40
2019-03-30T06:14:22.648Z,11.60
2019-03-30T06:16:49.195Z,19.07
2019-03-30T06:19:15.766Z,10.33
2019-03-30T06:21:42.347Z,11.07
2019-03-30T06:24:09.573Z,10.80
2019-03-30T06:26:36.291Z,10.57
2019-03-30T06:29:03.093Z,10.03
2019-03-30T06:31:29.838Z,11.17
2019-03-30T06:33:56.652Z,10.40
2019-03-30T06:36:23.494Z,10.03
2019-03-30T06:38:50.438Z,10.43
2019-03-30T06:41:16.999Z,9.97
2019-03-30T06:43:43.562Z,11.63
2019-03-30T06:46:10.970Z,11.07
2019-03-30T06:48:37.630Z,10.83
2019-03-30T06:51:04.316Z,11.33
2019-03-30T06:53:30.966Z,10.90
2019-03-30T06:55:57.532Z,10.03
2019-03-30T06:58:24.169Z,11.27
2019-03-30T07:00:52.442Z,10.73
2019-03-30T07:03:19.341Z,12.20
2019-03-30T07:05:46.200Z,12.43
2019-03-30T07:08:15.078Z,11.43
2019-03-30T07:10:44.926Z,12.50
2019-03-30T07:13:13.348Z,11.23
2019-03-30T07:15:44.973Z,12.80
2019-03-30T07:18:13.711Z,9.80
2019-03-30T07:20:40.442Z,10.83
2019-03-30T07:23:12.358Z,11.97
2019-03-30T07:25:35.791Z,12.73
2019-03-30T07:28:02.721Z,10.80
2019-03-30T07:30:29.423Z,11.37
2019-03-30T07:32:56.373Z,12.37
2019-03-30T07:35:24.197Z,11.50
2019-03-30T07:37:51.044Z,11.97
2019-03-30T07:40:17.916Z,11.63
2019-03-30T07:42:46.363Z,12.20
2019-03-30T07:45:13.639Z,11.10
2019-03-30T07:47:40.706Z,12.57
2019-03-30T07:50:10.033Z,11.80
2019-03-30T07:52:37.482Z,11.60
2019-03-30T07:55:05.448Z,10.80
2019-03-30T07:57:35.891Z,11.03
2019-03-30T08:00:07.197Z,11.30
2019-03-30T08:02:33.856Z,11.30
2019-03-30T08:05:04.696Z,10.80
2019-03-30T08:07:31.605Z,11.33
2019-03-30T08:09:58.172Z,10.77
2019-03-30T08:12:26.031Z,10.30
2019-03-30T08:14:52.637Z,12.17
2019-03-30T08:17:19.552Z,11.83
2019-03-30T08:19:46.228Z,12.50
2019-03-30T08:22:12.995Z,10.53
2019-03-30T08:24:39.565Z,11.47
2019-03-30T08:27:06.158Z,11.17
2019-03-30T08:29:32.842Z,11.60
2019-03-30T08:31:59.428Z,11.00
2019-03-30T08:34:26.100Z,12.10
2019-03-30T08:36:52.712Z,10.87
2019-03-30T08:39:19.266Z,10.77
2019-03-30T08:41:45.874Z,11.90
2019-03-30T08:44:12.418Z,12.37
2019-03-30T08:46:39.005Z,10.90
2019-03-30T08:49:05.801Z,11.53
2019-03-30T08:51:32.462Z,11.73
2019-03-30T08:54:00.367Z,11.30
2019-03-30T08:56:28.122Z,11.87
2019-03-30T08:58:55.081Z,12.00
2019-03-30T09:01:21.710Z,11.80
2019-03-30T09:03:49.406Z,12.87
2019-03-30T09:06:16.082Z,12.83
2019-03-30T09:08:43.143Z,12.23
2019-03-30T09:11:09.712Z,14.13
2019-03-30T09:13:37.702Z,13.37
2019-03-30T09:16:04.498Z,14.03
2019-03-30T09:18:31.207Z,13.33
2019-03-30T09:20:57.839Z,12.93
2019-03-30T09:23:24.460Z,12.30
2019-03-30T09:25:51.160Z,13.37
2019-03-30T09:28:17.734Z,13.73
2019-03-30T09:30:44.622Z,14.20
2019-03-30T09:33:11.360Z,15.03
2019-03-30T09:35:38.214Z,16.03
2019-03-30T09:38:04.964Z,15.43
2019-03-30T09:40:33.655Z,14.73
2019-03-30T09:43:00.344Z,14.73
2019-03-30T09:45:26.964Z,14.33
2019-03-30T09:47:54.777Z,15.60
2019-03-30T09:50:21.578Z,17.27
2019-03-30T09:52:48.387Z,17.43
2019-03-30T09:55:15.343Z,16.83
2019-03-30T09:57:45.781Z,18.47
2019-03-30T10:00:12.790Z,18.03
2019-03-30T10:02:39.562Z,17.07
2019-03-30T10:05:08.916Z,17.83
2019-03-30T10:07:35.889Z,20.00
2019-03-30T10:12:55.850Z,19.67
2019-03-30T10:15:24.342Z,17.37
2019-03-30T10:17:51.016Z,16.90
2019-03-30T10:20:25.394Z,15.07
2019-03-30T10:22:52.184Z,15.30
2019-03-30T10:25:18.813Z,15.00
2019-03-30T10:27:45.913Z,14.67
2019-03-30T10:32:54.620Z,12.93
2019-03-30T10:35:21.414Z,14.07
2019-03-30T10:37:50.263Z,13.00
2019-03-30T10:40:20.732Z,13.27
2019-03-30T10:42:46.283Z,14.90
2019-03-30T10:45:13.307Z,13.30
2019-03-30T10:47:40.101Z,12.73
2019-03-30T10:50:09.096Z,12.87
2019-03-30T10:52:37.079Z,12.90
2019-03-30T10:55:05.633Z,12.03
2019-03-30T10:57:32.390Z,11.93
2019-03-30T11:00:00.385Z,12.93
2019-03-30T11:02:27.944Z,12.27
2019-03-30T11:04:55.741Z,13.10
2019-03-30T11:07:23.528Z,13.07
2019-03-30T11:09:50.644Z,12.33
2019-03-30T11:12:17.924Z,12.13
2019-03-30T11:14:44.909Z,13.57
2019-03-30T11:17:11.606Z,12.87
2019-03-30T11:19:39.071Z,13.97
2019-03-30T11:22:06.130Z,14.33
2019-03-30T11:24:32.730Z,13.20
2019-03-30T11:26:59.360Z,12.80
2019-03-30T11:29:26.128Z,13.10
2019-03-30T11:31:52.719Z,12.70
2019-03-30T11:35:15.807Z,13.50
2019-03-30T11:37:42.445Z,14.00
2019-03-30T11:40:24.302Z,14.33
2019-03-30T11:42:50.901Z,14.80
2019-03-30T11:45:17.815Z,15.60
2019-03-30T11:47:44.585Z,13.50
2019-03-30T11:50:11.492Z,14.37
2019-03-30T11:52:38.112Z,14.97
2019-03-30T11:55:06.044Z,14.13
2019-03-30T11:57:34.885Z,13.10
2019-03-30T12:00:58.118Z,13.53
2019-03-30T12:03:25.038Z,12.77
2019-03-30T12:05:51.957Z,14.23
2019-03-30T12:08:18.532Z,13.73
2019-03-30T12:10:45.180Z,12.97
2019-03-30T12:14:08.536Z,14.30
2019-03-30T12:16:38.068Z,13.90
2019-03-30T12:19:04.814Z,13.10
2019-03-30T12:21:31.414Z,14.87
2019-03-30T12:23:58.312Z,14.30
2019-03-30T12:26:25.461Z,13.67
2019-03-30T12:28:52.120Z,13.10
2019-03-30T12:31:18.867Z,12.70
2019-03-30T12:33:48.566Z,12.90
2019-03-30T12:36:17.430Z,12.93
2019-03-30T12:38:44.338Z,13.40
2019-03-30T12:41:12.225Z,12.30
2019-03-30T12:43:54.401Z,13.23
2019-03-30T12:46:21.361Z,11.87
2019-03-30T12:48:48.240Z,11.77
2019-03-30T12:51:14.880Z,13.70
2019-03-30T12:53:50.423Z,11.63
2019-03-30T12:56:15.403Z,13.10
2019-03-30T12:58:53.506Z,13.13
2019-03-30T13:01:21.426Z,14.87
2019-03-30T13:03:48.073Z,12.17
2019-03-30T13:06:14.906Z,14.70
2019-03-30T13:08:41.500Z,12.13
2019-03-30T13:11:08.167Z,12.40
2019-03-30T13:13:34.986Z,11.60
2019-03-30T13:16:01.739Z,13.50
2019-03-30T13:18:28.329Z,12.80
2019-03-30T13:20:54.907Z,13.27
2019-03-30T13:23:21.579Z,13.47
2019-03-30T13:25:48.183Z,13.17
2019-03-30T13:28:14.830Z,13.13
2019-03-30T13:30:41.690Z,12.77
2019-03-30T13:33:08.326Z,12.53
2019-03-30T13:35:34.989Z,12.20
2019-03-30T13:38:01.616Z,12.83
2019-03-30T13:40:28.357Z,12.80
2019-03-30T13:42:54.945Z,12.53
2019-03-30T13:45:21.735Z,12.67
2019-03-30T13:47:48.410Z,13.13
2019-03-30T13:50:15.360Z,13.63
2019-03-30T13:52:41.988Z,12.73
2019-03-30T13:55:09.152Z,13.63
2019-03-30T13:57:37.191Z,12.97
2019-03-30T14:00:07.167Z,11.63
2019-03-30T14:02:34.285Z,13.20
2019-03-30T14:05:02.792Z,12.10
2019-03-30T14:07:29.875Z,12.20
2019-03-30T14:09:57.234Z,12.33
2019-03-30T14:12:24.362Z,12.17
2019-03-30T14:14:51.543Z,12.30
2019-03-30T14:17:20.144Z,13.17
2019-03-30T14:19:48.521Z,12.33
2019-03-30T14:22:15.600Z,16.03
2019-03-30T14:24:42.697Z,13.63
2019-03-30T14:27:09.573Z,12.63
2019-03-30T14:29:36.671Z,12.93
2019-03-30T14:32:04.435Z,14.20
2019-03-30T14:34:31.380Z,15.27
2019-03-30T14:36:58.457Z,13.73
2019-03-30T14:39:25.793Z,14.03
2019-03-30T14:41:54.051Z,14.13
2019-03-30T14:44:24.352Z,14.67
2019-03-30T14:46:55.387Z,18.23
2019-03-30T14:49:23.077Z,13.90
2019-03-30T14:51:51.077Z,13.67
2019-03-30T14:54:19.525Z,19.40
2019-03-30T14:56:47.925Z,18.00
2019-03-30T14:59:16.215Z,15.83
2019-03-30T15:01:44.664Z,17.07
2019-03-30T15:04:14.569Z,14.73
2019-03-30T15:06:45.968Z,16.13
2019-03-30T15:09:14.321Z,15.60
2019-03-30T15:11:43.578Z,17.63
2019-03-30T15:14:14.852Z,16.03
2019-03-30T15:53:45.815Z,19.17
2019-03-30T15:56:13.061Z,21.17
2019-03-30T15:58:39.987Z,23.33
2019-03-30T16:01:07.247Z,23.17
2019-03-30T16:03:34.426Z,25.20
2019-03-30T16:06:01.413Z,26.47
2019-03-30T16:08:29.567Z,37.37
2019-03-30T16:10:56.605Z,27.87
2019-03-30T16:13:24.027Z,27.40
2019-03-30T16:15:51.310Z,28.67
2019-03-30T16:18:18.411Z,22.90
2019-03-30T16:20:45.909Z,25.00
2019-03-30T16:23:13.060Z,26.17
2019-03-30T16:25:40.058Z,24.53
2019-03-30T16:28:07.292Z,24.33
2019-03-30T16:30:34.782Z,33.93
2019-03-30T16:33:01.998Z,31.53
2019-03-30T16:35:29.065Z,28.97
2019-03-30T16:37:56.058Z,28.37
2019-03-30T16:40:23.023Z,27.50
2019-03-30T16:42:50.734Z,27.10
2019-03-30T16:45:17.612Z,30.87
2019-03-30T16:47:44.671Z,42.13
2019-03-30T16:50:14.585Z,28.30
2019-03-30T16:52:41.570Z,28.10
2019-03-30T16:55:09.031Z,31.73
2019-03-30T16:57:43.305Z,29.43
2019-03-30T17:00:10.040Z,27.73
2019-03-30T17:02:37.407Z,25.93
2019-03-30T17:05:06.495Z,23.17
2019-03-30T17:07:33.618Z,23.03
2019-03-30T17:10:00.593Z,22.90
2019-03-30T17:12:27.682Z,24.27
2019-03-30T17:14:54.579Z,23.47
2019-03-30T17:17:21.607Z,22.03
2019-03-30T17:19:48.597Z,23.63
2019-03-30T17:22:15.483Z,24.97
2019-03-30T17:24:42.393Z,24.97
2019-03-30T17:27:09.811Z,25.20
2019-03-30T17:29:36.957Z,26.90
2019-03-30T17:32:04.118Z,28.07
2019-03-30T17:34:31.192Z,29.37
2019-03-30T17:36:58.058Z,31.63
2019-03-30T17:39:25.043Z,34.30
2019-03-30T17:41:51.907Z,35.43
2019-03-30T17:44:19.209Z,35.63
2019-03-30T17:46:46.612Z,35.67
2019-03-30T17:49:13.558Z,37.10
2019-03-30T17:51:40.638Z,35.97
2019-03-30T17:54:07.630Z,37.10
2019-03-30T17:56:34.741Z,41.73
2019-03-30T17:59:01.958Z,42.53
2019-03-30T18:01:29.186Z,45.57
2019-03-30T18:03:56.067Z,47.60
2019-03-30T18:06:24.042Z,44.00
2019-03-30T18:08:51.541Z,41.73
2019-03-30T18:11:18.480Z,43.20
2019-03-30T18:13:45.489Z,41.00
2019-03-30T18:16:12.423Z,41.73
2019-03-30T18:18:39.496Z,40.63
2019-03-30T18:21:06.523Z,40.10
2019-03-30T18:23:33.155Z,43.10
2019-03-30T18:25:59.899Z,41.13
2019-03-30T18:28:27.533Z,39.13
2019-03-30T18:30:54.561Z,37.13
2019-03-30T18:33:23.508Z,36.87
2019-03-30T18:35:51.183Z,35.17
2019-03-30T18:38:18.798Z,35.77
2019-03-30T18:40:46.183Z,34.57
2019-03-30T18:43:13.097Z,34.90
2019-03-30T18:45:39.667Z,31.07
2019-03-30T18:48:12.622Z,34.20
2019-03-30T18:50:40.794Z,31.13
2019-03-30T18:53:08.246Z,32.10
2019-03-30T18:55:34.966Z,33.00
2019-03-30T18:58:01.825Z,34.03
2019-03-30T19:00:29.750Z,36.63
2019-03-30T19:03:00.059Z,36.10
2019-03-30T19:05:26.885Z,40.60
2019-03-30T19:07:53.644Z,47.30
2019-03-30T19:10:21.646Z,49.27
2019-03-30T19:12:48.515Z,55.30
2019-03-30T19:15:15.379Z,62.07
2019-03-30T19:17:42.045Z,62.63
2019-03-30T19:20:09.186Z,62.20
2019-03-30T19:22:35.820Z,68.70
2019-03-30T19:25:06.694Z,70.37
2019-03-30T19:27:34.681Z,71.83
2019-03-30T19:30:03.536Z,69.07
2019-03-30T19:32:30.981Z,67.80
2019-03-30T19:34:57.837Z,66.30
2019-03-30T19:37:24.847Z,65.83
2019-03-30T19:39:52.132Z,64.53
2019-03-30T19:42:18.967Z,70.97
2019-03-30T19:44:46.478Z,69.77
2019-03-30T19:47:13.784Z,67.83
2019-03-30T19:49:41.178Z,67.33
2019-03-30T19:52:08.554Z,63.20
2019-03-30T19:54:35.471Z,62.50
2019-03-30T19:57:02.425Z,57.00
2019-03-30T19:59:29.726Z,55.23
2019-03-30T20:01:59.017Z,55.23
2019-03-30T20:04:26.159Z,57.27
2019-03-30T20:06:53.905Z,63.10
2019-03-30T20:09:21.312Z,59.40
2019-03-30T20:11:48.509Z,61.83
2019-03-30T20:14:15.622Z,59.87
2019-03-30T20:16:43.673Z,59.60
2019-03-30T20:19:12.469Z,60.07
2019-03-30T20:21:39.727Z,66.30
2019-03-30T20:24:06.690Z,67.30
2019-03-30T20:26:33.733Z,70.23
2019-03-30T20:29:00.552Z,71.63
2019-03-30T20:31:27.236Z,76.47
2019-03-30T20:33:53.810Z,78.50
2019-03-30T20:36:20.813Z,74.53
2019-03-30T20:38:47.654Z,74.10
2019-03-30T20:41:14.647Z,72.07
2019-03-30T20:43:41.408Z,74.47
2019-03-30T20:46:07.958Z,75.20
2019-03-30T20:48:35.849Z,72.97
2019-03-30T20:51:02.482Z,73.53
2019-03-30T20:53:29.294Z,72.87
2019-03-30T20:55:56.331Z,72.37
2019-03-30T20:58:22.986Z,75.00
2019-03-30T21:00:49.833Z,73.60
2019-03-30T21:03:16.496Z,70.97
2019-03-30T21:05:43.121Z,71.50
2019-03-30T21:08:10.490Z,69.77
2019-03-30T21:10:37.181Z,70.27
2019-03-30T21:13:04.118Z,70.83
2019-03-30T21:15:30.779Z,73.07
2019-03-30T21:17:57.684Z,70.27
2019-03-30T21:20:24.355Z,69.43
2019-03-30T21:22:50.946Z,67.47
2019-03-30T21:25:17.696Z,69.20
2019-03-30T21:27:44.347Z,71.27
2019-03-30T21:30:12.309Z,71.27
2019-03-30T21:32:39.212Z,71.63
2019-03-30T21:35:06.442Z,74.40
2019-03-30T21:37:33.328Z,72.53
2019-03-30T21:39:59.971Z,71.13
2019-03-30T21:42:27.889Z,72.80
2019-03-30T21:44:54.661Z,73.03
2019-03-30T21:47:21.257Z,73.17
2019-03-30T21:49:48.200Z,75.33
2019-03-30T21:52:14.823Z,74.97
2019-03-30T21:54:43.369Z,77.77
2019-03-30T21:57:09.927Z,74.87
2019-03-30T21:59:36.740Z,73.53
2019-03-30T22:02:03.442Z,74.73
2019-03-30T22:04:31.117Z,74.43
2019-03-30T22:06:57.946Z,72.37
2019-03-30T22:09:25.156Z,74.40
2019-03-30T22:11:51.844Z,75.63
2019-03-30T22:14:18.757Z,79.27
2019-03-30T22:16:46.443Z,74.63
2019-03-30T22:19:13.049Z,79.57
2019-03-30T22:21:39.788Z,75.67
2019-03-30T22:24:06.488Z,76.23
2019-03-30T22:26:33.049Z,76.60
2019-03-30T22:29:00.851Z,74.40
2019-03-30T22:31:29.463Z,78.00
2019-03-30T22:33:56.067Z,76.80
2019-03-30T22:36:22.906Z,77.83
2019-03-30T22:38:49.509Z,85.50
2019-03-30T22:41:16.224Z,91.57
2019-03-30T22:43:43.895Z,93.27
2019-03-30T22:46:11.806Z,91.23
2019-03-30T22:48:38.360Z,83.20
2019-03-30T22:51:04.965Z,83.43
2019-03-30T22:53:31.541Z,85.30
2019-03-30T22:55:58.344Z,80.57
2019-03-30T22:58:25.059Z,77.87
2019-03-30T23:00:57.137Z,75.77
2019-03-30T23:03:24.938Z,74.63
2019-03-30T23:05:51.660Z,73.57
2019-03-30T23:08:18.307Z,74.43
2019-03-30T23:10:44.984Z,75.40
2019-03-30T23:13:13.628Z,72.53
2019-03-30T23:15:40.322Z,73.67
2019-03-30T23:18:06.949Z,73.63
2019-03-30T23:20:33.615Z,69.63
2019-03-30T23:23:00.210Z,71.77
2019-03-30T23:25:26.784Z,72.50
2019-03-30T23:27:53.509Z,73.07
2019-03-30T23:30:20.154Z,68.47
2019-03-30T23:32:46.702Z,69.13
2019-03-30T23:35:16.442Z,69.13
2019-03-30T23:37:43.043Z,66.87
2019-03-30T23:40:09.833Z,67.80
2019-03-30T23:42:36.448Z,69.33
2019-03-30T23:45:04.755Z,66.90
2019-03-30T23:47:32.581Z,64.97
2019-03-30T23:49:59.184Z,64.83
2019-03-30T23:52:25.694Z,69.87
2019-03-30T23:54:52.264Z,66.20
2019-03-30T23:57:18.825Z,64.13
2019-03-30T23:59:45.473Z,67.70
